Time;durP1;ratioP1;P1;durP2;ratioP2;P2;SDS_P1;SDS_P2;PMS_P1;PMS_P2;Temp;Humidity;BMP_temperature;BMP_pressure;BME280_temperature;BME280_humidity;BME280_pressure;Samples;Min_cycle;Max_cycle;Signal;HPM_P1;HPM_P2
2021/09/22 00:01:07;;;;;;;17.80;13.68;;;;;;;9.38;69.96;100186.66;2622559;47;20546;-66
2021/09/22 00:03:37;;;;;;;13.10;10.48;;;;;;;9.32;70.45;100184.66;2623725;39;20418;-65
2021/09/22 00:06:10;;;;;;;10.88;9.45;;;;;;;9.35;70.71;100179.91;2623888;54;20046;-67
2021/09/22 00:08:42;;;;;;;12.88;9.45;;;;;;;9.35;69.87;100179.91;2622539;47;20026;-67
2021/09/22 00:11:12;;;;;;;14.18;10.40;;;;;;;9.30;70.31;100176.88;2622429;47;20038;-67
2021/09/22 00:13:44;;;;;;;15.60;10.73;;;;;;;9.30;70.21;100173.41;2622213;54;20025;-67
2021/09/22 00:16:28;;;;;;;93.55;51.35;;;;;;;9.26;70.73;100174.69;2622021;47;20037;-67
2021/09/22 00:18:59;;;;;;;109.55;54.22;;;;;;;9.17;70.75;100181.69;2622272;51;20027;-67
2021/09/22 00:21:34;;;;;;;33.60;20.33;;;;;;;9.13;71.01;100185.59;2622882;47;20103;-67
2021/09/22 00:24:05;;;;;;;21.00;14.25;;;;;;;9.06;70.93;100185.41;2622613;47;20030;-67
2021/09/22 00:26:37;;;;;;;11.27;7.95;;;;;;;9.06;71.02;100187.16;2623463;39;20426;-66
2021/09/22 00:29:10;;;;;;;7.60;6.47;;;;;;;9.05;70.87;100183.72;2622975;54;20031;-66
2021/09/22 00:31:40;;;;;;;6.23;5.47;;;;;;;9.07;71.19;100179.13;2623289;54;20537;-69
2021/09/22 00:34:11;;;;;;;8.88;6.20;;;;;;;9.09;70.75;100178.97;2622644;39;20410;-66
2021/09/22 00:36:44;;;;;;;6.50;5.50;;;;;;;9.08;71.15;100175.50;2623911;54;20597;-67
2021/09/22 00:39:17;;;;;;;6.85;5.97;;;;;;;9.09;70.66;100177.16;2622892;47;20034;-66
2021/09/22 00:41:47;;;;;;;6.43;5.80;;;;;;;9.05;70.77;100180.25;2624132;54;20002;-67
2021/09/22 00:44:17;;;;;;;7.15;6.07;;;;;;;9.01;71.25;100186.78;2623051;47;20030;-68
2021/09/22 00:46:47;;;;;;;9.07;6.20;;;;;;;8.97;70.91;100182.78;2623695;54;20037;-67
2021/09/22 00:49:17;;;;;;;6.80;6.10;;;;;;;8.95;71.36;100182.97;2623125;47;20038;-68
2021/09/22 00:51:53;;;;;;;9.35;5.85;;;;;;;8.95;71.22;100182.13;2623188;47;20585;-70
2021/09/22 00:54:24;;;;;;;8.38;5.93;;;;;;;8.89;71.38;100184.34;2623197;54;20031;-67
2021/09/22 00:56:54;;;;;;;6.25;5.28;;;;;;;8.89;71.66;100187.00;2623279;54;20027;-68
2021/09/22 00:59:25;;;;;;;6.72;5.53;;;;;;;8.92;71.40;100177.97;2623257;54;20023;-68
2021/09/22 01:01:55;;;;;;;7.05;5.82;;;;;;;8.95;71.28;100174.22;2623437;47;20042;-68
2021/09/22 01:04:30;;;;;;;7.40;5.63;;;;;;;9.01;71.07;100168.34;2623180;47;20573;-67
2021/09/22 01:07:05;;;;;;;7.57;5.15;;;;;;;9.01;71.10;100163.88;2623209;47;20041;-69
2021/09/22 01:09:39;;;;;;;7.20;6.13;;;;;;;9.07;70.64;100173.84;2624450;39;20481;-67
2021/09/22 01:12:10;;;;;;;6.30;5.70;;;;;;;9.03;70.22;100167.22;2624057;31;20561;-68
2021/09/22 01:14:43;;;;;;;7.05;6.07;;;;;;;8.86;70.39;100163.59;2622835;47;20034;-68
2021/09/22 01:17:13;;;;;;;7.65;5.90;;;;;;;8.76;71.16;100173.34;2623289;54;20038;-70
2021/09/22 01:19:43;;;;;;;6.45;5.57;;;;;;;8.70;70.77;100171.31;2623717;54;20067;-67
2021/09/22 01:22:18;;;;;;;5.88;5.25;;;;;;;8.66;71.41;100173.41;2624298;54;20034;-67
2021/09/22 01:25:02;;;;;;;5.72;5.22;;;;;;;8.70;71.00;100176.59;2623230;47;20030;-68
2021/09/22 01:27:34;;;;;;;7.70;5.40;;;;;;;8.59;70.88;100174.97;2622687;47;20037;-67
2021/09/22 01:30:06;;;;;;;6.72;6.03;;;;;;;8.51;71.23;100180.13;2622736;54;20086;-68
2021/09/22 01:32:36;;;;;;;5.70;5.13;;;;;;;8.49;71.46;100183.88;2625277;39;20468;-68
2021/09/22 01:35:07;;;;;;;6.53;5.53;;;;;;;8.48;71.49;100180.41;2622983;54;20033;-68
2021/09/22 01:37:59;;;;;;;7.60;5.57;;;;;;;8.50;71.88;100185.56;2623668;47;20026;-68
2021/09/22 01:40:58;;;;;;;11.30;5.28;;;;;;;8.57;71.59;100183.97;2622808;54;20069;-68
2021/09/22 01:43:34;;;;;;;7.13;5.32;;;;;;;8.62;71.34;100185.22;2622848;54;20050;-67
2021/09/22 01:46:07;;;;;;;5.25;4.75;;;;;;;8.65;71.28;100184.94;2622727;54;20031;-68
2021/09/22 01:48:39;;;;;;;5.43;4.93;;;;;;;8.65;71.57;100181.44;2622994;47;20549;-68
2021/09/22 01:51:11;;;;;;;6.82;5.07;;;;;;;8.71;71.65;100182.69;2623391;54;20094;-68
2021/09/22 01:54:02;;;;;;;6.47;4.85;;;;;;;8.76;71.02;100186.53;2622730;51;20033;-68
2021/09/22 01:56:34;;;;;;;5.68;5.05;;;;;;;8.76;70.84;100189.16;2622656;51;20041;-68
2021/09/22 01:59:09;;;;;;;6.32;4.93;;;;;;;8.71;70.90;100174.78;2622021;51;20047;-68
2021/09/22 02:02:05;;;;;;;6.22;5.22;;;;;;;8.75;70.75;100178.78;2623168;54;20174;-68
2021/09/22 02:05:03;;;;;;;7.53;4.35;;;;;;;8.72;70.81;100179.06;2623347;54;20054;-68
2021/09/22 02:07:36;;;;;;;;;;;;;;;8.67;70.52;100176.88;2624250;47;20033;-68
2021/09/22 02:10:13;;;;;;;5.45;4.65;;;;;;;8.57;70.93;100183.97;2623626;51;19979;-67
2021/09/22 02:12:43;;;;;;;8.80;5.43;;;;;;;8.46;70.87;100179.75;2623281;46;20026;-67
2021/09/22 02:15:14;;;;;;;9.07;5.47;;;;;;;8.30;71.38;100176.88;2621631;47;20029;-68
2021/09/22 02:18:10;;;;;;;9.88;5.95;;;;;;;8.22;71.65;100180.22;2622287;46;20026;-68
2021/09/22 02:20:52;;;;;;;6.78;5.25;;;;;;;8.19;72.22;100177.84;2621022;47;20182;-70
2021/09/22 02:23:25;;;;;;;7.30;5.25;;;;;;;8.18;71.99;100179.66;2621468;54;20031;-67
2021/09/22 02:26:07;;;;;;;7.13;5.82;;;;;;;8.11;71.82;100168.03;2622161;39;20426;-69
2021/09/22 02:28:41;;;;;;;7.25;5.57;;;;;;;8.08;72.22;100168.34;2621161;46;20031;-67
2021/09/22 02:31:12;;;;;;;7.03;5.00;;;;;;;8.10;72.26;100170.81;2621470;47;20557;-68
2021/09/22 02:34:04;;;;;;;6.35;5.72;;;;;;;8.10;72.21;100162.91;2621492;54;20035;-68
2021/09/22 02:36:35;;;;;;;6.80;5.72;;;;;;;8.07;72.47;100164.03;2621351;54;20034;-67
2021/09/22 02:39:09;;;;;;;6.75;4.88;;;;;;;8.06;72.57;100154.47;2621236;47;20034;-68
2021/09/22 02:41:48;;;;;;;5.88;5.22;;;;;;;8.12;72.54;100155.69;2621517;47;20777;-68
2021/09/22 02:44:18;;;;;;;7.45;5.18;;;;;;;8.11;72.42;100141.69;2621011;54;20026;-67
2021/09/22 02:46:52;;;;;;;8.20;5.50;;;;;;;8.15;72.26;100148.34;2621656;47;20023;-68
2021/09/22 02:49:26;;;;;;;6.72;4.93;;;;;;;8.24;72.19;100156.34;2621893;46;20110;-68
2021/09/22 02:51:58;;;;;;;10.52;5.10;;;;;;;8.31;72.19;100149.53;2622355;47;20151;-68
2021/09/22 02:54:29;;;;;;;7.38;5.32;;;;;;;8.30;71.71;100156.63;2622222;47;20038;-68
2021/09/22 02:57:17;;;;;;;6.30;4.82;;;;;;;8.29;71.32;100147.06;2619394;47;20026;-62
2021/09/22 02:59:48;;;;;;;6.10;5.50;;;;;;;8.23;71.14;100152.88;2618454;47;20560;-62
2021/09/22 03:02:22;;;;;;;6.30;4.80;;;;;;;8.11;71.70;100149.59;2618378;46;20031;-62
2021/09/22 03:04:53;;;;;;;7.22;5.07;;;;;;;8.05;71.60;100141.47;2617960;54;20027;-63
2021/09/22 03:07:23;;;;;;;7.25;4.80;;;;;;;8.01;71.95;100143.53;2619187;54;20034;-63
2021/09/22 03:09:54;;;;;;;5.95;5.35;;;;;;;8.01;72.05;100140.91;2618751;47;20047;-63
2021/09/22 03:12:26;;;;;;;5.38;4.88;;;;;;;7.92;72.21;100144.41;2618154;54;20037;-63
2021/09/22 03:14:57;;;;;;;6.32;5.47;;;;;;;7.91;72.30;100146.19;2618617;54;20042;-63
2021/09/22 03:17:29;;;;;;;5.60;5.00;;;;;;;7.87;72.49;100142.19;2618964;39;20434;-63
2021/09/22 03:19:59;;;;;;;8.82;5.68;;;;;;;7.80;72.39;100142.91;2619224;54;20037;-64
2021/09/22 03:22:31;;;;;;;6.25;5.13;;;;;;;7.74;72.37;100146.09;2618640;54;20041;-63
2021/09/22 03:25:13;;;;;;;6.30;5.68;;;;;;;7.69;72.76;100157.06;2618245;47;20039;-64
2021/09/22 03:27:46;;;;;;;6.75;5.43;;;;;;;7.65;72.82;100153.03;2618402;54;20038;-64
2021/09/22 03:30:20;;;;;;;7.00;5.63;;;;;;;7.71;73.04;100155.09;2618395;47;20033;-63
2021/09/22 03:33:10;;;;;;;9.35;7.28;;;;;;;7.69;72.56;100152.63;2619376;47;20057;-63
2021/09/22 03:35:39;;;;;;;15.00;10.43;;;;;;;7.68;72.51;100152.78;2619598;54;20022;-63
2021/09/22 03:38:09;;;;;;;6.40;5.15;;;;;;;7.68;72.54;100145.69;2620408;54;20046;-62
2021/09/22 03:40:39;;;;;;;6.88;5.10;;;;;;;7.72;72.71;100151.50;2619573;54;20038;-63
2021/09/22 03:43:12;;;;;;;6.75;4.68;;;;;;;7.81;72.64;100160.38;2618582;54;20146;-63
2021/09/22 03:45:42;;;;;;;5.70;4.78;;;;;;;7.84;72.42;100160.91;2618194;54;20030;-63
2021/09/22 03:48:11;;;;;;;5.68;4.68;;;;;;;7.83;72.11;100161.03;2618755;54;20062;-64
2021/09/22 03:50:41;;;;;;;6.50;4.78;;;;;;;7.83;72.56;100161.88;2618875;47;20050;-64
2021/09/22 03:53:16;;;;;;;4.45;4.05;;;;;;;7.86;72.28;100158.13;2618413;47;20541;-64
2021/09/22 03:55:47;;;;;;;6.22;5.38;;;;;;;7.88;72.35;100148.31;2618062;47;20130;-63
2021/09/22 03:58:21;;;;;;;8.38;5.10;;;;;;;7.85;71.71;100162.56;2619167;54;20086;-64
2021/09/22 04:00:51;;;;;;;7.05;4.78;;;;;;;7.80;71.54;100164.81;2620110;54;20037;-64
2021/09/22 04:03:21;;;;;;;9.23;5.25;;;;;;;7.72;71.83;100164.69;2619859;39;20451;-63
2021/09/22 04:05:52;;;;;;;5.63;5.00;;;;;;;7.67;72.13;100151.94;2622256;47;20038;-63
2021/09/22 04:08:21;;;;;;;6.15;5.55;;;;;;;7.69;72.54;100154.44;2622803;54;20038;-63
2021/09/22 04:10:52;;;;;;;7.63;5.00;;;;;;;7.69;72.59;100149.97;2622386;54;20035;-64
2021/09/22 04:13:24;;;;;;;5.70;4.93;;;;;;;7.72;71.89;100156.78;2622001;54;20082;-63
2021/09/22 04:15:57;;;;;;;7.20;5.38;;;;;;;7.70;71.87;100156.06;2618942;47;20553;-63
2021/09/22 04:18:27;;;;;;;7.60;5.45;;;;;;;7.61;71.79;100160.38;2618738;54;20029;-63
2021/09/22 04:20:57;;;;;;;10.57;6.72;;;;;;;7.57;71.70;100159.00;2618507;47;20031;-63
2021/09/22 04:23:27;;;;;;;7.80;5.80;;;;;;;7.48;72.33;100159.84;2618585;54;20038;-63
2021/09/22 04:25:57;;;;;;;6.38;4.57;;;;;;;7.39;72.23;100155.44;2618729;47;20022;-63
2021/09/22 04:28:29;;;;;;;7.65;5.53;;;;;;;7.36;72.67;100155.69;2618175;54;20534;-62
2021/09/22 04:31:17;;;;;;;7.00;6.10;;;;;;;7.33;72.69;100155.97;2618478;54;20054;-62
2021/09/22 04:34:06;;;;;;;7.10;5.38;;;;;;;7.36;73.16;100155.69;2618097;54;20037;-63
2021/09/22 04:36:54;;;;;;;7.90;5.88;;;;;;;7.42;73.06;100161.22;2618638;54;20549;-63
2021/09/22 04:39:42;;;;;;;8.30;5.95;;;;;;;7.44;73.00;100156.66;2618538;54;20034;-63
2021/09/22 04:42:32;;;;;;;7.72;5.40;;;;;;;7.47;72.86;100160.84;2617922;54;20026;-63
2021/09/22 04:45:25;;;;;;;7.25;5.53;;;;;;;7.48;72.68;100159.03;2618677;54;20061;-62
2021/09/22 04:48:17;;;;;;;8.02;5.40;;;;;;;7.49;72.59;100158.03;2618241;54;20053;-63
2021/09/22 04:51:06;;;;;;;7.53;5.25;;;;;;;7.53;72.73;100162.06;2619077;54;20054;-63
2021/09/22 04:53:54;;;;;;;6.80;5.25;;;;;;;7.52;72.46;100166.50;2620224;39;20429;-63
2021/09/22 04:56:41;;;;;;;12.60;5.93;;;;;;;7.47;72.37;100160.84;2619424;54;20106;-63
2021/09/22 04:59:30;;;;;;;6.10;5.50;;;;;;;7.47;72.60;100157.34;2619099;54;20038;-63
2021/09/22 05:02:21;;;;;;;6.60;5.28;;;;;;;7.42;72.84;100161.22;2618919;54;20067;-63
2021/09/22 05:05:11;;;;;;;8.10;5.78;;;;;;;7.40;73.14;100160.53;2618425;54;20034;-62
2021/09/22 05:07:59;;;;;;;8.50;5.65;;;;;;;7.40;72.85;100157.91;2618863;54;20065;-62
2021/09/22 05:10:48;;;;;;;6.97;5.63;;;;;;;7.43;73.26;100162.91;2618775;54;20170;-63
2021/09/22 05:13:43;;;;;;;10.63;6.45;;;;;;;7.45;73.00;100162.75;2617742;54;20045;-63
2021/09/22 05:16:32;;;;;;;6.97;5.50;;;;;;;7.44;73.18;100161.94;2619250;54;20145;-62
2021/09/22 05:19:24;;;;;;;9.55;6.45;;;;;;;7.47;73.03;100168.72;2619933;54;20057;-62
2021/09/22 05:22:15;;;;;;;8.90;6.25;;;;;;;7.44;72.89;100166.38;2618927;54;20062;-63
2021/09/22 05:25:04;;;;;;;8.38;6.13;;;;;;;7.42;72.67;100165.66;2618755;54;20059;-63
2021/09/22 05:27:52;;;;;;;8.48;6.75;;;;;;;7.41;73.02;100171.91;2618867;54;20058;-63
2021/09/22 05:30:40;;;;;;;9.90;6.57;;;;;;;7.38;72.93;100173.00;2619100;54;20045;-62
2021/09/22 05:33:29;;;;;;;8.45;6.82;;;;;;;7.40;73.03;100173.69;2618941;54;20034;-62
2021/09/22 05:36:20;;;;;;;6.90;5.53;;;;;;;7.44;72.95;100174.25;2618616;54;20034;-62
2021/09/22 05:39:08;;;;;;;9.88;6.03;;;;;;;7.52;72.98;100176.19;2619003;54;20153;-63
2021/09/22 05:41:57;;;;;;;9.65;6.43;;;;;;;7.63;72.52;100174.25;2619854;54;20058;-62
2021/09/22 05:44:45;;;;;;;9.35;5.65;;;;;;;7.65;71.96;100180.19;2619646;54;20115;-63
2021/09/22 05:47:33;;;;;;;8.10;5.45;;;;;;;7.64;72.08;100177.72;2619777;54;20045;-63
2021/09/22 05:50:21;;;;;;;10.68;5.70;;;;;;;7.64;72.50;100172.44;2619848;39;20422;-63
2021/09/22 05:53:12;;;;;;;8.05;5.53;;;;;;;7.67;72.00;100178.25;2619614;54;20033;-63
2021/09/22 05:56:00;;;;;;;6.60;4.68;;;;;;;7.70;72.15;100172.69;2618831;54;20068;-63
2021/09/22 05:59:09;;;;;;;9.13;5.70;;;;;;;7.74;71.93;100177.69;2619329;54;20065;-63
2021/09/22 06:01:57;;;;;;;7.10;5.03;;;;;;;7.76;71.58;100181.84;2619592;54;20049;-63
2021/09/22 06:04:50;;;;;;;7.20;5.50;;;;;;;7.71;71.70;100184.06;2619730;31;20549;-62
2021/09/22 06:07:40;;;;;;;7.03;5.55;;;;;;;7.71;71.96;100173.53;2620861;39;20403;-63
2021/09/22 06:10:40;;;;;;;7.03;5.57;;;;;;;7.80;71.78;100175.34;2618683;54;20034;-62
2021/09/22 06:13:34;;;;;;;10.43;7.40;;;;;;;7.88;71.43;100182.53;2617667;54;20577;-63
2021/09/22 06:16:04;;;;;;;8.45;6.95;;;;;;;7.89;71.45;100181.56;2618527;39;20403;-62
2021/09/22 06:18:35;;;;;;;8.70;5.72;;;;;;;7.91;71.19;100179.59;2618255;54;20034;-63
2021/09/22 06:21:06;;;;;;;10.05;6.15;;;;;;;7.93;70.63;100175.84;2617952;54;20022;-62
2021/09/22 06:23:36;;;;;;;5.90;5.30;;;;;;;7.98;71.27;100164.06;2618509;54;20038;-62
2021/09/22 06:26:08;;;;;;;8.57;5.53;;;;;;;8.09;70.87;100170.00;2617294;47;20133;-62
2021/09/22 06:28:38;;;;;;;7.45;5.82;;;;;;;8.18;70.94;100173.56;2617798;47;20153;-62
2021/09/22 06:31:08;;;;;;;12.93;6.68;;;;;;;8.28;70.71;100174.34;2619228;54;20593;-62
2021/09/22 06:33:37;;;;;;;14.10;6.80;;;;;;;8.32;70.33;100182.81;2620118;54;20071;-62
2021/09/22 06:36:16;;;;;;;12.05;6.65;;;;;;;8.36;70.26;100171.00;2620069;54;20037;-62
2021/09/22 06:38:48;;;;;;;14.48;5.80;;;;;;;8.41;70.31;100179.34;2620317;54;20085;-63
2021/09/22 06:41:20;;;;;;;8.70;5.32;;;;;;;8.58;70.15;100183.84;2620500;54;20022;-63
2021/09/22 06:43:50;;;;;;;12.15;6.32;;;;;;;8.68;69.55;100186.44;2619863;54;20030;-62
2021/09/22 06:46:19;;;;;;;10.75;6.18;;;;;;;8.70;69.41;100191.56;2620760;54;20022;-64
2021/09/22 06:48:49;;;;;;;10.75;5.80;;;;;;;8.75;69.32;100192.78;2621102;54;20550;-62
2021/09/22 06:51:19;;;;;;;9.30;5.78;;;;;;;8.85;69.16;100185.63;2621946;54;20059;-62
2021/09/22 06:53:49;;;;;;;9.60;5.72;;;;;;;8.90;68.90;100196.59;2621499;54;20037;-62
2021/09/22 06:56:24;;;;;;;11.05;6.05;;;;;;;9.07;68.77;100202.03;2621845;54;20034;-63
2021/09/22 06:58:54;;;;;;;10.88;5.82;;;;;;;9.21;68.58;100198.88;2622049;54;20038;-63
2021/09/22 07:01:23;;;;;;;8.35;5.75;;;;;;;9.40;68.10;100201.38;2621885;54;20026;-63
2021/09/22 07:03:53;;;;;;;10.60;6.00;;;;;;;9.54;67.75;100191.28;2622292;39;20442;-62
2021/09/22 07:06:23;;;;;;;13.02;6.15;;;;;;;9.64;67.41;100194.66;2621733;54;20045;-63
2021/09/22 07:08:53;;;;;;;10.95;6.72;;;;;;;9.76;67.37;100197.91;2621933;54;20041;-63
2021/09/22 07:11:25;;;;;;;9.75;5.88;;;;;;;9.76;66.59;100197.91;2621675;47;20035;-63
2021/09/22 07:13:55;;;;;;;10.07;6.50;;;;;;;9.76;66.61;100200.53;2621157;54;20054;-63
2021/09/22 07:16:24;;;;;;;20.45;8.85;;;;;;;9.81;66.30;100193.81;2622031;54;20805;-63
2021/09/22 07:18:54;;;;;;;15.18;7.40;;;;;;;9.83;66.17;100197.09;2621700;54;20611;-63
2021/09/22 07:21:24;;;;;;;9.80;6.75;;;;;;;9.84;66.57;100192.69;2622038;54;20018;-63
2021/09/22 07:23:53;;;;;;;12.23;6.45;;;;;;;9.91;66.27;100193.69;2621466;54;20026;-63
2021/09/22 07:26:26;;;;;;;13.80;7.47;;;;;;;10.06;66.71;100200.09;2621914;54;20035;-64
2021/09/22 07:28:55;;;;;;;15.27;6.50;;;;;;;10.21;66.76;100189.78;2621947;54;20066;-63
2021/09/22 07:31:25;;;;;;;9.63;5.70;;;;;;;10.38;66.52;100188.09;2621758;54;20047;-63
2021/09/22 07:33:55;;;;;;;9.60;6.00;;;;;;;10.55;65.55;100191.63;2621567;54;20034;-63
2021/09/22 07:36:25;;;;;;;12.10;6.10;;;;;;;10.66;65.64;100189.53;2622151;39;20434;-63
2021/09/22 07:38:54;;;;;;;8.90;6.13;;;;;;;10.84;65.28;100184.13;2621705;39;20430;-63
2021/09/22 07:41:27;;;;;;;8.80;5.90;;;;;;;10.90;64.57;100180.88;2621905;54;20061;-63
2021/09/22 07:43:56;;;;;;;9.75;6.72;;;;;;;10.96;64.66;100186.50;2621275;54;20061;-64
2021/09/22 07:46:26;;;;;;;10.77;5.90;;;;;;;11.06;64.01;100195.09;2621728;54;20074;-64
2021/09/22 07:48:56;;;;;;;8.65;5.55;;;;;;;11.12;64.33;100190.00;2621627;54;20058;-63
2021/09/22 07:51:25;;;;;;;10.70;6.15;;;;;;;11.26;64.19;100190.34;2620726;46;20030;-63
2021/09/22 07:53:55;;;;;;;7.82;6.38;;;;;;;11.32;63.79;100189.72;2621059;54;20031;-63
2021/09/22 07:56:27;;;;;;;11.77;7.93;;;;;;;11.39;64.29;100191.56;2620233;54;20038;-63
2021/09/22 07:58:57;;;;;;;12.65;10.82;;;;;;;11.56;63.25;100196.88;2619243;54;20510;-63
2021/09/22 08:01:26;;;;;;;9.77;7.50;;;;;;;11.72;63.10;100198.69;2619199;54;20046;-62
2021/09/22 08:52:33;;;;;;;6.65;4.93;;;;;;;14.19;59.00;100179.53;2610694;46;20046;-63
2021/09/22 08:55:02;;;;;;;8.10;5.18;;;;;;;14.41;57.91;100183.09;2617917;54;20030;-63
2021/09/22 08:57:32;;;;;;;8.77;6.30;;;;;;;14.49;57.25;100175.03;2618558;54;20046;-63
2021/09/22 09:00:02;;;;;;;6.05;5.13;;;;;;;14.66;57.34;100179.19;2619124;39;20419;-63
2021/09/22 09:02:40;;;;;;;5.70;4.75;;;;;;;14.79;57.04;100179.34;2618534;54;20874;-63
2021/09/22 09:05:13;;;;;;;6.32;5.15;;;;;;;14.97;55.96;100180.75;2618603;39;20450;-63
2021/09/22 09:07:55;;;;;;;7.68;5.07;;;;;;;15.08;55.96;100178.44;2618278;54;20030;-69
2021/09/22 09:10:27;;;;;;;6.78;4.60;;;;;;;15.13;55.40;100177.88;2617943;54;20035;-70
2021/09/22 09:13:05;;;;;;;7.97;5.32;;;;;;;15.18;55.57;100170.13;2617719;54;20034;-69
2021/09/22 09:15:40;;;;;;;5.70;4.50;;;;;;;15.28;55.03;100169.84;2617523;54;20053;-70
2021/09/22 09:18:15;;;;;;;6.70;4.35;;;;;;;15.35;55.09;100173.41;2617833;54;20045;-71
2021/09/22 09:20:48;;;;;;;6.95;4.75;;;;;;;15.50;54.58;100176.81;2617842;54;20034;-70
2021/09/22 09:23:22;;;;;;;7.85;4.80;;;;;;;15.58;54.06;100173.19;2617770;54;20048;-70
2021/09/22 09:26:00;;;;;;;7.47;4.78;;;;;;;15.64;53.99;100171.63;2617621;54;20038;-68
2021/09/22 09:28:31;;;;;;;5.35;4.13;;;;;;;15.71;53.82;100168.00;2617850;54;20027;-69
2021/09/22 09:31:04;;;;;;;9.52;5.03;;;;;;;15.81;53.79;100176.50;2617923;54;20038;-70
2021/09/22 09:33:40;;;;;;;4.32;3.80;;;;;;;15.89;53.82;100172.06;2617192;47;20065;-69
2021/09/22 09:36:30;;;;;;;8.85;4.50;;;;;;;16.00;53.31;100166.16;2616568;54;20034;-69
2021/09/22 09:39:09;;;;;;;4.53;3.65;;;;;;;16.08;53.31;100161.53;2618158;39;20433;-69
2021/09/22 09:41:42;;;;;;;7.35;3.30;;;;;;;16.24;52.32;100149.69;2617393;39;20398;-70
2021/09/22 09:44:13;;;;;;;;;;;;;;;16.41;51.98;100147.56;2618172;39;20559;-70
2021/09/22 09:46:43;;;;;;;3.28;2.75;;;;;;;16.55;49.66;100151.09;2617777;54;19973;-69
2021/09/22 09:49:14;;;;;;;3.53;3.22;;;;;;;16.60;49.38;100151.31;2617764;54;20030;-70
2021/09/22 09:51:46;;;;;;;3.08;2.60;;;;;;;16.71;49.13;100149.94;2618434;39;20438;-71
2021/09/22 09:54:24;;;;;;;4.15;2.42;;;;;;;16.87;48.71;100143.44;2617693;54;20035;-70
2021/09/22 09:56:56;;;;;;;4.60;2.80;;;;;;;16.96;47.58;100143.06;2617285;47;20053;-70
2021/09/22 09:59:27;;;;;;;4.15;2.63;;;;;;;17.09;46.37;100139.59;2617178;54;20546;-70
2021/09/22 10:01:58;;;;;;;4.43;2.67;;;;;;;17.12;46.18;100141.88;2617354;39;20438;-70
2021/09/22 10:04:28;;;;;;;8.75;3.53;;;;;;;17.14;46.31;100131.78;2617867;39;20453;-70
2021/09/22 10:06:58;;;;;;;4.60;3.17;;;;;;;17.14;46.60;100131.78;2617073;54;20034;-69
2021/09/22 10:09:30;;;;;;;5.43;3.45;;;;;;;17.19;46.21;100133.88;2617763;54;20042;-70
2021/09/22 10:12:00;;;;;;;3.30;2.20;;;;;;;17.23;45.75;100125.25;2617665;54;20031;-70
2021/09/22 10:14:31;;;;;;;3.00;2.20;;;;;;;17.22;45.61;100131.59;2616905;47;20411;-72
2021/09/22 10:17:03;;;;;;;2.80;2.17;;;;;;;17.19;45.86;100129.34;2616376;47;20723;-70
2021/09/22 10:19:33;;;;;;;2.50;1.85;;;;;;;17.33;45.48;100124.84;2617052;47;20067;-70
2021/09/22 10:22:03;;;;;;;4.57;2.20;;;;;;;17.39;45.27;100123.19;2618198;54;20031;-70
2021/09/22 10:24:36;;;;;;;3.17;2.40;;;;;;;17.41;45.53;100111.28;2622142;54;20057;-71
2021/09/22 10:27:06;;;;;;;3.97;2.28;;;;;;;17.41;45.62;100111.28;2624149;54;20559;-71
2021/09/22 10:29:36;;;;;;;4.60;2.08;;;;;;;17.46;45.15;100107.97;2624014;54;20037;-70
2021/09/22 10:32:08;;;;;;;3.22;2.00;;;;;;;17.55;44.92;100101.38;2624926;54;20033;-70
2021/09/22 10:34:39;;;;;;;2.17;1.75;;;;;;;17.56;45.66;100106.53;2625085;46;20046;-70
2021/09/22 10:37:33;;;;;;;2.58;1.70;;;;;;;17.75;44.44;100096.88;2625039;54;20034;-70
2021/09/22 10:40:06;;;;;;;;;;;;;;;17.76;44.51;100100.41;2622841;39;20454;-70
2021/09/22 10:42:38;;;;;;;4.32;1.80;;;;;;;17.71;44.49;100100.97;2622828;54;19985;-70
2021/09/22 10:45:20;;;;;;;3.00;2.28;;;;;;;17.85;44.41;100092.97;2621574;47;20034;-70
2021/09/22 10:47:51;;;;;;;1.95;1.70;;;;;;;17.91;44.56;100084.91;2622462;54;20046;-69
2021/09/22 10:50:50;;;;;;;2.88;2.15;;;;;;;18.04;43.92;100092.09;2622977;54;20035;-71
2021/09/22 10:53:39;;;;;;;2.38;1.70;;;;;;;18.10;43.12;100083.25;2623326;39;20431;-71
2021/09/22 10:56:13;;;;;;;2.15;1.65;;;;;;;18.15;43.08;100086.09;2622629;54;20026;-70
2021/09/22 10:58:49;;;;;;;1.95;1.73;;;;;;;18.12;42.87;100081.16;2622558;54;20026;-70
2021/09/22 11:01:49;;;;;;;2.72;1.80;;;;;;;18.16;43.36;100078.88;2624118;54;20038;-70
2021/09/22 11:04:20;;;;;;;1.67;1.58;;;;;;;18.24;42.92;100075.97;2623559;54;20034;-70
2021/09/22 11:07:07;;;;;;;2.05;1.83;;;;;;;18.28;42.88;100069.97;2623054;39;20133;-73
2021/09/22 11:09:38;;;;;;;3.33;1.92;;;;;;;18.33;43.03;100072.06;2621653;54;20028;-70
2021/09/22 11:12:16;;;;;;;1.83;1.67;;;;;;;18.34;42.59;100076.38;2620491;39;20434;-69
2021/09/22 11:14:52;;;;;;;2.42;1.90;;;;;;;18.37;43.10;100067.06;2618991;54;20037;-69
2021/09/22 11:17:25;;;;;;;1.55;1.45;;;;;;;18.52;42.58;100057.72;2621573;54;20038;-71
2021/09/22 11:19:56;;;;;;;2.75;1.15;;;;;;;18.58;41.78;100058.75;2621707;54;20030;-69
2021/09/22 11:22:29;;;;;;;5.80;1.90;;;;;;;18.55;42.04;100056.50;2620990;54;20042;-69
2021/09/22 11:25:01;;;;;;;1.98;1.48;;;;;;;18.47;42.54;100056.75;2622693;54;20030;-69
2021/09/22 11:27:34;;;;;;;2.15;1.75;;;;;;;18.56;42.97;100050.09;2623296;47;20561;-69
2021/09/22 11:30:06;;;;;;;1.83;1.52;;;;;;;18.74;42.28;100042.22;2624098;47;20034;-69
2021/09/22 11:32:38;;;;;;;1.48;1.38;;;;;;;18.87;42.14;100040.47;2625039;54;20026;-70
2021/09/22 11:35:10;;;;;;;1.80;1.60;;;;;;;18.87;41.44;100041.28;2624769;54;20310;-70
2021/09/22 11:37:45;;;;;;;3.33;1.30;;;;;;;18.90;42.10;100035.50;2624877;54;20043;-69
2021/09/22 11:40:18;;;;;;;2.97;1.95;;;;;;;19.04;41.69;100030.88;2624595;47;20561;-70
2021/09/22 11:43:00;;;;;;;2.22;1.63;;;;;;;19.10;41.82;100021.94;2626650;39;20465;-69
2021/09/22 11:45:31;;;;;;;2.65;1.83;;;;;;;19.15;41.37;100027.50;2624491;54;20027;-68
2021/09/22 11:48:05;;;;;;;1.65;1.30;;;;;;;19.04;41.43;100020.16;2625129;54;20035;-70
2021/09/22 11:50:37;;;;;;;2.38;1.38;;;;;;;18.93;41.64;100016.31;2624587;54;20081;-69
2021/09/22 11:53:09;;;;;;;1.70;1.60;;;;;;;19.04;41.15;100026.31;2622816;46;20054;-71
2021/09/22 11:55:40;;;;;;;1.70;1.55;;;;;;;19.04;41.47;100022.81;2619339;54;20030;-70
2021/09/22 11:58:13;;;;;;;2.22;1.65;;;;;;;19.11;41.43;100018.25;2618502;54;20621;-70
2021/09/22 12:00:45;;;;;;;3.17;1.70;;;;;;;19.23;41.29;100019.16;2617818;47;20034;-70
2021/09/22 12:03:16;;;;;;;2.67;1.52;;;;;;;19.37;40.49;100011.00;2618818;54;20147;-69
2021/09/22 12:05:47;;;;;;;1.83;1.30;;;;;;;19.44;41.13;100009.91;2618483;54;20057;-69
2021/09/22 12:08:17;;;;;;;2.13;1.80;;;;;;;19.68;41.03;100010.13;2618693;39;20404;-69
2021/09/22 12:10:47;;;;;;;2.85;1.55;;;;;;;19.84;40.32;100020.25;2618103;54;20023;-69
2021/09/22 12:13:19;;;;;;;1.67;1.23;;;;;;;19.89;39.56;100004.31;2618440;54;20030;-69
2021/09/22 12:15:49;;;;;;;2.33;1.30;;;;;;;19.85;39.91;100011.16;2617983;54;20030;-68
2021/09/22 12:18:19;;;;;;;1.20;1.10;;;;;;;19.84;39.99;99997.94;2618087;54;20037;-68
2021/09/22 12:20:49;;;;;;;1.60;1.50;;;;;;;19.94;39.94;99990.22;2618808;31;20530;-69
2021/09/22 12:23:27;;;;;;;1.85;1.63;;;;;;;20.10;39.76;99989.59;2617871;39;20414;-69
2021/09/22 12:26:09;;;;;;;2.67;1.55;;;;;;;20.27;38.90;99984.41;2617346;46;20039;-69
2021/09/22 12:28:43;;;;;;;1.65;1.30;;;;;;;20.18;39.21;99983.09;2617247;46;20035;-70
2021/09/22 12:31:17;;;;;;;;;;;;;;;20.14;39.83;99974.69;2617765;47;20034;-69
2021/09/22 12:33:48;;;;;;;1.88;1.38;;;;;;;20.13;38.92;99978.41;2618036;54;19946;-70
2021/09/22 12:36:19;;;;;;;1.83;1.45;;;;;;;20.04;38.92;99974.38;2617493;47;20039;-69
2021/09/22 12:39:00;;;;;;;1.98;1.55;;;;;;;20.08;39.47;99972.88;2617737;47;20046;-69
2021/09/22 12:41:30;;;;;;;2.78;1.52;;;;;;;20.22;39.11;99968.19;2617868;46;20074;-69
2021/09/22 12:44:03;;;;;;;1.40;1.30;;;;;;;20.11;39.17;99956.31;2617650;54;20030;-69
2021/09/22 12:46:38;;;;;;;1.43;1.20;;;;;;;20.16;39.35;99961.81;2618295;39;20419;-69
2021/09/22 12:49:19;;;;;;;1.90;1.50;;;;;;;20.23;38.75;99949.16;2617844;54;20030;-69
2021/09/22 12:51:50;;;;;;;1.23;1.13;;;;;;;20.14;39.01;99950.50;2617217;54;20050;-70
2021/09/22 12:54:20;;;;;;;1.98;1.45;;;;;;;20.15;39.57;99946.78;2617926;39;20407;-69
2021/09/22 12:56:50;;;;;;;1.50;1.40;;;;;;;20.27;39.18;99934.22;2617872;54;20031;-70